createdAt,value
2022-08-09T00:00:32.250Z,51.00
2022-08-09T00:01:05.596Z,51.00
2022-08-09T00:01:55.260Z,51.00
2022-08-09T00:02:27.635Z,51.00
2022-08-09T00:02:59.906Z,51.10
2022-08-09T00:04:06.191Z,51.00
2022-08-09T00:04:34.133Z,51.00
2022-08-09T00:06:17.860Z,51.00
2022-08-09T00:06:19.592Z,51.00
2022-08-09T00:06:51.337Z,51.00
2022-08-09T00:07:24.723Z,51.00
2022-08-09T00:08:01.681Z,51.00
2022-08-09T00:08:34.111Z,51.00
2022-08-09T00:09:05.926Z,51.00
2022-08-09T00:09:42.507Z,51.10
2022-08-09T00:10:21.357Z,51.10
2022-08-09T00:10:53.474Z,51.10
2022-08-09T00:12:03.774Z,52.20
2022-08-09T00:12:22.921Z,51.10
2022-08-09T00:12:54.854Z,51.10
2022-08-09T00:13:27.059Z,51.10
2022-08-09T00:13:59.463Z,51.10
2022-08-09T00:14:38.089Z,51.10
2022-08-09T00:15:14.671Z,51.10
2022-08-09T00:15:59.467Z,51.70
2022-08-09T00:16:38.250Z,51.10
2022-08-09T00:17:10.417Z,51.10
2022-08-09T00:18:04.567Z,51.10
2022-08-09T00:18:39.022Z,51.10
2022-08-09T00:19:11.240Z,51.20
2022-08-09T00:19:47.959Z,51.10
2022-08-09T00:20:20.213Z,51.10
2022-08-09T00:20:52.482Z,51.00
2022-08-09T00:21:24.447Z,51.00
2022-08-09T00:21:57.155Z,51.10
2022-08-09T00:22:35.007Z,51.00
2022-08-09T00:23:56.330Z,51.00
2022-08-09T00:24:00.023Z,51.00
2022-08-09T00:24:32.528Z,51.00
2022-08-09T00:25:08.554Z,51.00
2022-08-09T00:25:44.434Z,51.00
2022-08-09T00:26:30.057Z,50.90
2022-08-09T00:27:06.394Z,50.90
2022-08-09T00:27:43.023Z,51.00
2022-08-09T00:28:15.228Z,50.90
2022-08-09T00:28:52.844Z,51.10
2022-08-09T00:29:39.134Z,51.00
2022-08-09T00:30:25.297Z,51.00
2022-08-09T00:30:58.349Z,51.00
2022-08-09T00:31:58.451Z,51.00
2022-08-09T00:32:35.767Z,51.00
2022-08-09T00:33:07.638Z,51.00
2022-08-09T00:33:49.199Z,51.00
2022-08-09T00:34:22.564Z,51.10
2022-08-09T00:34:58.721Z,51.10
2022-08-09T00:35:43.051Z,51.00
2022-08-09T00:36:15.828Z,51.00
2022-08-09T00:36:49.393Z,50.70
2022-08-09T00:37:21.202Z,51.00
2022-08-09T00:37:52.969Z,51.10
2022-08-09T00:38:26.314Z,51.10
2022-08-09T00:38:58.689Z,51.10
2022-08-09T00:40:12.804Z,51.30
2022-08-09T00:40:22.403Z,50.30
2022-08-09T00:41:02.048Z,51.20
2022-08-09T00:44:15.307Z,51.20
2022-08-09T00:44:16.636Z,51.20
2022-08-09T00:44:25.318Z,51.30
2022-08-09T00:44:25.856Z,51.10
2022-08-09T00:44:58.343Z,51.20
2022-08-09T00:45:30.137Z,51.20
2022-08-09T00:46:09.402Z,51.20
2022-08-09T00:46:57.040Z,51.20
2022-08-09T00:47:39.610Z,51.20
2022-08-09T00:48:15.429Z,51.30
2022-08-09T00:48:51.369Z,51.60
2022-08-09T00:49:28.231Z,51.30
2022-08-09T00:50:02.554Z,51.30
2022-08-09T00:50:37.923Z,51.20
2022-08-09T00:51:12.965Z,51.30
2022-08-09T00:51:55.858Z,51.40
2022-08-09T00:52:30.906Z,51.40
2022-08-09T00:53:10.112Z,51.40
2022-08-09T00:53:42.875Z,51.40
2022-08-09T00:54:18.420Z,51.40
2022-08-09T00:54:53.385Z,51.50
2022-08-09T00:56:02.972Z,51.40
2022-08-09T00:56:17.202Z,51.50
2022-08-09T00:56:49.034Z,51.50
2022-08-09T00:57:24.811Z,51.60
2022-08-09T00:58:07.380Z,51.60
2022-08-09T00:58:41.018Z,51.60
2022-08-09T00:59:12.805Z,51.60
2022-08-09T00:59:52.880Z,51.70
2022-08-09T01:00:24.974Z,51.60
2022-08-09T01:00:59.060Z,51.60
2022-08-09T01:01:44.904Z,51.60
2022-08-09T01:02:30.136Z,51.70
2022-08-09T01:03:46.208Z,51.70
2022-08-09T01:04:33.754Z,51.60
2022-08-09T01:05:21.755Z,51.70
2022-08-09T01:06:17.720Z,51.80
2022-08-09T01:07:37.645Z,51.80
2022-08-09T01:08:31.169Z,51.80
2022-08-09T01:09:13.594Z,51.90
2022-08-09T01:10:17.308Z,51.90
2022-08-09T01:11:09.911Z,51.90
2022-08-09T01:12:00.669Z,51.90
2022-08-09T01:12:38.785Z,52.00
2022-08-09T01:13:53.292Z,52.00
2022-08-09T01:14:46.589Z,52.00
2022-08-09T01:15:29.103Z,52.00
2022-08-09T01:16:06.094Z,52.00
2022-08-09T01:16:47.394Z,52.00
2022-08-09T01:17:34.322Z,52.00
2022-08-09T01:18:14.233Z,52.10
2022-08-09T01:19:04.527Z,52.00
2022-08-09T01:20:02.472Z,52.10
2022-08-09T01:20:49.968Z,52.10
2022-08-09T01:21:50.852Z,52.10
2022-08-09T01:22:52.076Z,52.30
2022-08-09T01:24:03.495Z,52.70
2022-08-09T01:24:50.456Z,52.10
2022-08-09T01:26:00.938Z,52.30
2022-08-09T01:26:53.651Z,52.30
2022-08-09T01:27:29.167Z,52.50
2022-08-09T01:28:03.323Z,52.40
2022-08-09T01:28:42.755Z,52.40
2022-08-09T01:29:19.190Z,52.30
2022-08-09T01:30:02.156Z,52.40
2022-08-09T01:30:51.688Z,52.70
2022-08-09T01:32:29.481Z,52.10
2022-08-09T01:32:31.529Z,52.50
2022-08-09T01:33:16.917Z,52.60
2022-08-09T01:33:50.671Z,52.70
2022-08-09T01:34:24.918Z,52.50
2022-08-09T01:35:18.077Z,52.20
2022-08-09T01:36:11.986Z,52.60
2022-08-09T01:36:47.877Z,52.70
2022-08-09T01:37:43.176Z,52.70
2022-08-09T01:38:19.467Z,52.60
2022-08-09T01:38:58.452Z,52.70
2022-08-09T01:39:35.700Z,51.90
2022-08-09T01:40:11.618Z,52.70
2022-08-09T01:41:16.810Z,52.60
2022-08-09T01:41:53.720Z,52.70
2022-08-09T01:42:30.058Z,52.80
2022-08-09T01:43:04.534Z,52.80
2022-08-09T01:43:52.039Z,52.80
2022-08-09T01:44:25.979Z,52.90
2022-08-09T01:45:00.425Z,52.80
2022-08-09T01:45:34.149Z,52.80
2022-08-09T01:46:26.879Z,52.90
2022-08-09T01:47:01.475Z,52.80
2022-08-09T01:47:34.038Z,52.90
2022-08-09T01:48:20.010Z,52.90
2022-08-09T01:49:12.687Z,53.00
2022-08-09T01:49:50.871Z,52.90
2022-08-09T01:50:29.888Z,52.90
2022-08-09T01:51:10.910Z,53.00
2022-08-09T01:52:07.098Z,53.00
2022-08-09T01:52:41.385Z,53.10
2022-08-09T01:53:19.356Z,53.10
2022-08-09T01:53:58.062Z,53.10
2022-08-09T01:54:35.381Z,53.00
2022-08-09T01:55:10.983Z,53.00
2022-08-09T01:55:44.284Z,53.00
2022-08-09T01:56:21.273Z,53.10
2022-08-09T01:56:56.819Z,53.20
2022-08-09T01:57:44.317Z,53.30
2022-08-09T01:58:18.399Z,53.30
2022-08-09T01:58:58.777Z,53.20
2022-08-09T01:59:33.761Z,53.20
2022-08-09T02:00:35.578Z,53.20
2022-08-09T02:01:11.094Z,53.20
2022-08-09T02:01:59.327Z,53.20
2022-08-09T02:02:38.123Z,53.20
2022-08-09T02:03:13.923Z,53.20
2022-08-09T02:03:48.020Z,53.10
2022-08-09T02:04:22.046Z,53.20
2022-08-09T02:04:59.429Z,53.20
2022-08-09T02:06:04.094Z,53.20
2022-08-09T02:06:54.264Z,53.80
2022-08-09T02:08:35.853Z,53.10
2022-08-09T02:08:36.089Z,53.30
2022-08-09T02:09:22.346Z,53.20
2022-08-09T02:10:01.229Z,53.20
2022-08-09T02:10:42.712Z,53.00
2022-08-09T02:11:17.188Z,53.10
2022-08-09T02:11:49.731Z,53.10
2022-08-09T02:12:23.442Z,53.50
2022-08-09T02:12:59.346Z,52.90
2022-08-09T02:13:37.567Z,53.00
2022-08-09T02:14:26.301Z,53.40
2022-08-09T02:15:01.302Z,53.00
2022-08-09T02:15:49.386Z,52.90
2022-08-09T02:16:33.625Z,52.90
2022-08-09T02:17:15.363Z,52.90
2022-08-09T02:18:10.598Z,52.80
2022-08-09T02:18:47.786Z,52.80
2022-08-09T02:19:21.171Z,52.90
2022-08-09T02:19:53.445Z,52.80
2022-08-09T02:20:32.681Z,52.80
2022-08-09T02:21:21.947Z,52.80
2022-08-09T02:21:58.955Z,52.80
2022-08-09T02:22:48.327Z,52.70
2022-08-09T02:23:52.451Z,52.70
2022-08-09T02:24:35.304Z,52.50
2022-08-09T02:25:20.483Z,52.80
2022-08-09T02:25:58.015Z,52.70
2022-08-09T02:26:35.140Z,52.70
2022-08-09T02:27:12.384Z,52.60
2022-08-09T02:28:05.499Z,52.60
2022-08-09T02:28:48.162Z,52.60
2022-08-09T02:29:25.276Z,52.70
2022-08-09T02:29:59.086Z,52.70
2022-08-09T02:30:41.541Z,52.50
2022-08-09T02:31:31.298Z,52.60
2022-08-09T02:32:10.789Z,52.60
2022-08-09T02:32:46.428Z,52.60
2022-08-09T02:33:37.934Z,52.60
2022-08-09T02:34:41.476Z,52.70
2022-08-09T02:36:01.160Z,52.60
2022-08-09T02:36:26.184Z,52.70
2022-08-09T02:37:01.352Z,52.80
2022-08-09T02:37:39.183Z,52.80
2022-08-09T02:38:29.011Z,52.70
2022-08-09T02:39:07.106Z,52.70
2022-08-09T02:39:55.337Z,52.60
2022-08-09T02:40:36.815Z,52.70
2022-08-09T02:41:12.572Z,52.60
2022-08-09T02:41:57.660Z,52.60
2022-08-09T02:42:35.104Z,52.60
2022-08-09T02:43:10.051Z,52.50
2022-08-09T02:43:55.018Z,52.60
2022-08-09T02:44:34.569Z,52.60
2022-08-09T02:45:35.946Z,52.60
2022-08-09T02:46:11.921Z,52.60
2022-08-09T02:46:46.578Z,52.60
2022-08-09T02:47:25.431Z,52.60
2022-08-09T02:48:02.166Z,52.60
2022-08-09T02:48:38.333Z,52.50
2022-08-09T02:49:27.130Z,52.60
2022-08-09T02:50:20.774Z,52.50
2022-08-09T02:50:58.893Z,52.60
2022-08-09T02:51:40.570Z,52.60
2022-08-09T02:52:16.779Z,52.60
2022-08-09T02:52:57.789Z,52.70
2022-08-09T02:53:52.967Z,52.80
2022-08-09T02:54:36.571Z,52.70
2022-08-09T02:55:46.747Z,52.70
2022-08-09T02:56:23.883Z,52.70
2022-08-09T02:57:13.593Z,52.90
2022-08-09T02:58:00.733Z,52.80
2022-08-09T02:58:50.855Z,53.00
2022-08-09T02:59:36.405Z,53.00
2022-08-09T03:00:21.241Z,52.90
2022-08-09T03:00:59.967Z,53.00
2022-08-09T03:01:43.090Z,53.00
2022-08-09T03:02:32.094Z,53.00
2022-08-09T03:03:08.568Z,53.00
2022-08-09T03:04:16.578Z,53.10
2022-08-09T03:04:39.035Z,53.00
2022-08-09T03:05:16.729Z,53.50
2022-08-09T03:05:51.938Z,53.10
2022-08-09T03:06:30.196Z,52.90
2022-08-09T03:07:12.403Z,53.00
2022-08-09T03:07:55.161Z,53.10
2022-08-09T03:08:29.664Z,53.00
2022-08-09T03:09:03.927Z,53.10
2022-08-09T03:09:42.999Z,53.00
2022-08-09T03:10:16.773Z,53.00
2022-08-09T03:10:51.754Z,53.00
2022-08-09T03:12:04.295Z,53.10
2022-08-09T03:12:19.563Z,54.40
2022-08-09T03:12:53.249Z,52.90
2022-08-09T03:13:26.223Z,53.00
2022-08-09T03:14:19.593Z,54.20
2022-08-09T03:14:59.378Z,52.90
2022-08-09T03:16:04.513Z,53.10
2022-08-09T03:16:24.190Z,53.00
2022-08-09T03:16:59.112Z,53.00
2022-08-09T03:17:34.137Z,53.00
2022-08-09T03:18:09.875Z,53.00
2022-08-09T03:18:43.931Z,53.10
2022-08-09T03:19:58.027Z,53.00
2022-08-09T03:20:12.958Z,53.00
2022-08-09T03:20:45.904Z,53.00
2022-08-09T03:21:25.898Z,53.00
2022-08-09T03:21:58.358Z,53.00
2022-08-09T03:22:31.538Z,53.00
2022-08-09T03:23:14.678Z,53.00
2022-08-09T03:24:03.826Z,53.00
2022-08-09T03:24:42.538Z,53.10
2022-08-09T03:25:26.591Z,53.10
2022-08-09T03:26:18.219Z,53.10
2022-08-09T03:26:51.716Z,53.00
2022-08-09T03:27:26.812Z,53.10
2022-08-09T03:28:02.404Z,53.10
2022-08-09T03:28:37.823Z,52.90
2022-08-09T03:29:23.018Z,53.00
2022-08-09T03:29:57.827Z,53.10
2022-08-09T03:30:36.672Z,53.00
2022-08-09T03:31:21.292Z,52.90
2022-08-09T03:32:00.437Z,53.00
2022-08-09T03:32:37.163Z,52.90
2022-08-09T03:33:17.595Z,53.00
2022-08-09T03:33:54.605Z,52.90
2022-08-09T03:34:27.309Z,53.00
2022-08-09T03:35:00.360Z,52.90
2022-08-09T03:35:44.290Z,52.90
2022-08-09T03:36:27.764Z,53.00
2022-08-09T03:37:10.770Z,53.00
2022-08-09T03:37:55.799Z,52.90
2022-08-09T03:38:30.666Z,53.00
2022-08-09T03:39:03.318Z,52.90
2022-08-09T03:39:37.959Z,52.90
2022-08-09T03:40:13.180Z,52.90
2022-08-09T03:40:45.194Z,52.80
2022-08-09T03:41:18.562Z,52.90
2022-08-09T03:41:51.005Z,52.90
2022-08-09T03:42:39.578Z,52.90
2022-08-09T03:43:14.699Z,52.90
2022-08-09T03:44:03.816Z,53.00
2022-08-09T03:44:39.942Z,52.90
2022-08-09T03:45:12.196Z,52.80
2022-08-09T03:46:04.251Z,53.00
2022-08-09T03:46:36.774Z,52.80
2022-08-09T03:47:08.729Z,53.10
2022-08-09T03:47:42.074Z,53.00
2022-08-09T03:48:31.072Z,53.00
2022-08-09T03:49:07.833Z,53.00
2022-08-09T03:49:58.182Z,53.00
2022-08-09T03:50:34.973Z,53.00
2022-08-09T03:51:56.287Z,53.60
2022-08-09T03:52:04.280Z,53.00
2022-08-09T03:52:38.906Z,53.00
2022-08-09T03:53:11.677Z,53.50
2022-08-09T03:53:44.744Z,53.00
2022-08-09T03:54:19.457Z,53.00
2022-08-09T03:55:07.490Z,53.00
2022-08-09T03:55:42.513Z,53.00
2022-08-09T03:56:14.522Z,53.00
2022-08-09T03:56:46.829Z,53.00
2022-08-09T03:57:21.034Z,52.90
2022-08-09T03:58:06.709Z,52.80
2022-08-09T03:58:46.049Z,52.90
2022-08-09T03:59:42.716Z,53.00
2022-08-09T04:00:15.298Z,52.00
2022-08-09T04:00:49.549Z,52.90
2022-08-09T04:01:22.361Z,52.90
2022-08-09T04:01:59.006Z,52.90
2022-08-09T04:02:32.805Z,53.00
2022-08-09T04:03:07.594Z,53.00
2022-08-09T04:04:01.380Z,52.90
2022-08-09T04:04:38.745Z,52.90
2022-08-09T04:05:27.975Z,52.90
2022-08-09T04:06:00.398Z,52.90
2022-08-09T04:06:36.849Z,53.10
2022-08-09T04:07:09.567Z,53.10
2022-08-09T04:07:47.165Z,53.00
2022-08-09T04:08:28.929Z,53.10
2022-08-09T04:09:15.824Z,53.00
2022-08-09T04:09:58.186Z,53.00
2022-08-09T04:10:30.590Z,52.90
2022-08-09T04:11:02.499Z,53.60
2022-08-09T04:12:08.816Z,53.00
2022-08-09T04:12:47.763Z,53.10
2022-08-09T04:13:26.383Z,53.30
2022-08-09T04:14:54.273Z,52.60
2022-08-09T04:15:17.043Z,53.20
2022-08-09T04:16:17.912Z,53.10
2022-08-09T04:16:40.948Z,53.20
2022-08-09T04:17:14.199Z,53.00
2022-08-09T04:17:47.625Z,53.10
2022-08-09T04:18:21.417Z,53.70
2022-08-09T09:50:14.926Z,70.90
2022-08-09T10:59:30.978Z,62.40
2022-08-09T11:00:29.366Z,62.80
2022-08-09T11:03:15.835Z,63.80
2022-08-09T11:30:06.213Z,60.00
2022-08-09T11:30:47.707Z,61.20
2022-08-09T11:31:49.865Z,61.50
2022-08-09T11:32:43.011Z,61.40
2022-08-09T11:33:17.508Z,61.30
2022-08-09T11:33:55.783Z,61.20
2022-08-09T11:34:41.632Z,61.10
2022-08-09T11:35:35.100Z,61.20
2022-08-09T11:36:30.283Z,60.90
2022-08-09T11:37:18.222Z,61.00
2022-08-09T11:37:52.310Z,61.00
2022-08-09T11:38:32.880Z,60.90
2022-08-09T11:39:06.473Z,61.00
2022-08-09T11:40:04.323Z,60.80
2022-08-09T11:40:36.182Z,60.90
2022-08-09T11:41:14.200Z,60.60
2022-08-09T11:41:48.815Z,60.60
2022-08-09T11:42:48.512Z,61.10
2022-08-09T11:43:32.405Z,59.50
2022-08-09T11:44:04.495Z,61.00
2022-08-09T11:44:46.598Z,60.90
2022-08-09T11:45:26.330Z,60.50
2022-08-09T11:46:18.430Z,60.40
2022-08-09T11:47:00.771Z,60.50
2022-08-09T11:47:46.363Z,60.00
2022-08-09T11:48:26.313Z,59.70
2022-08-09T11:48:58.935Z,59.40
2022-08-09T11:50:55.137Z,59.60
2022-08-09T11:52:49.538Z,59.50
2022-08-09T11:53:02.584Z,59.20
2022-08-09T11:53:20.828Z,58.80
2022-08-09T11:54:13.418Z,58.60
2022-08-09T11:55:35.025Z,58.70
2022-08-09T11:56:19.312Z,59.10
2022-08-09T11:56:51.839Z,59.00
2022-08-09T11:57:56.399Z,59.00
2022-08-09T11:58:34.544Z,59.20
2022-08-09T11:59:10.509Z,58.90
2022-08-09T11:59:42.678Z,58.70
2022-08-09T12:00:27.419Z,58.60
2022-08-09T12:01:15.541Z,58.50
2022-08-09T12:02:16.860Z,58.30
2022-08-09T12:02:53.390Z,58.20
2022-08-09T12:03:54.877Z,58.20
2022-08-09T12:04:20.850Z,58.70
2022-08-09T12:05:03.142Z,58.60
2022-08-09T12:05:42.339Z,59.20
2022-08-09T12:06:24.727Z,59.80
2022-08-09T12:07:07.691Z,59.20
2022-08-09T12:07:41.909Z,58.80
2022-08-09T12:08:21.520Z,58.70
2022-08-09T12:08:56.985Z,58.90
2022-08-09T12:09:33.997Z,58.90
2022-08-09T12:10:06.854Z,58.10
2022-08-09T12:10:53.709Z,57.80
2022-08-09T12:11:27.477Z,58.60
2022-08-09T12:12:05.923Z,58.90
2022-08-09T12:12:47.723Z,58.90
2022-08-09T12:14:08.060Z,59.20
2022-08-09T12:14:58.910Z,58.80
2022-08-09T12:15:50.420Z,58.50
2022-08-09T12:16:38.127Z,57.80
2022-08-09T12:17:27.998Z,57.80
2022-08-09T12:18:06.470Z,57.60
2022-08-09T12:18:53.743Z,57.80
2022-08-09T12:19:32.054Z,57.40
2022-08-09T12:20:16.489Z,57.20
2022-08-09T12:20:53.943Z,57.10
2022-08-09T12:21:50.847Z,56.90
2022-08-09T12:22:26.543Z,56.30
2022-08-09T12:23:01.965Z,56.40
2022-08-09T12:23:56.473Z,56.20
2022-08-09T12:24:33.711Z,56.20
2022-08-09T12:25:17.841Z,56.40
2022-08-09T12:26:08.796Z,56.50
2022-08-09T12:28:58.862Z,56.90
2022-08-09T12:29:13.734Z,56.90
2022-08-09T12:29:14.240Z,56.90
2022-08-09T12:29:44.623Z,56.80
2022-08-09T12:30:36.731Z,56.80
2022-08-09T12:31:59.163Z,56.80
2022-08-09T12:32:14.616Z,56.70
2022-08-09T12:32:48.709Z,56.10
2022-08-09T12:33:21.116Z,56.70
2022-08-09T12:34:00.812Z,56.20
2022-08-09T12:34:42.271Z,55.90
2022-08-09T12:35:19.450Z,55.30
2022-08-09T12:36:04.935Z,55.80
2022-08-09T12:36:58.974Z,55.90
2022-08-09T12:37:50.569Z,55.60
2022-08-09T12:38:38.014Z,55.60
2022-08-09T12:39:14.706Z,55.40
2022-08-09T12:40:01.223Z,54.90
2022-08-09T12:40:45.638Z,54.70
2022-08-09T12:41:33.713Z,54.70
2022-08-09T12:42:16.217Z,55.30
2022-08-09T12:42:50.197Z,56.00
2022-08-09T12:44:06.007Z,55.90
2022-08-09T12:44:18.046Z,55.50
2022-08-09T12:44:57.433Z,55.70
2022-08-09T12:45:33.764Z,55.80
2022-08-09T12:46:07.928Z,55.90
2022-08-09T12:46:48.795Z,56.30
2022-08-09T12:47:23.165Z,56.10
2022-08-09T12:47:55.368Z,56.00
2022-08-09T12:48:33.782Z,55.80
2022-08-09T12:49:09.547Z,55.80
2022-08-09T12:49:51.223Z,55.30
2022-08-09T12:50:25.473Z,55.50
2022-08-09T12:50:58.444Z,55.60
2022-08-09T12:52:00.866Z,55.50
2022-08-09T12:52:42.803Z,55.10
2022-08-09T12:53:36.705Z,54.90
2022-08-09T12:54:10.025Z,55.20
2022-08-09T12:55:03.030Z,55.00
2022-08-09T12:56:15.185Z,54.60
2022-08-09T12:56:54.173Z,54.40
2022-08-09T12:57:46.878Z,53.60
2022-08-09T12:58:27.345Z,54.40
2022-08-09T12:59:10.800Z,54.10
2022-08-09T13:00:02.164Z,54.30
2022-08-09T13:00:42.967Z,54.20
2022-08-09T13:01:28.262Z,54.10
2022-08-09T13:02:05.029Z,53.70
2022-08-09T13:03:02.418Z,53.40
2022-08-09T13:03:53.223Z,53.60
2022-08-09T13:04:37.124Z,53.60
2022-08-09T13:05:10.226Z,53.30
2022-08-09T13:06:11.371Z,53.90
2022-08-09T13:06:46.571Z,53.00
2022-08-09T13:07:19.899Z,52.50
2022-08-09T13:08:21.024Z,52.90
2022-08-09T13:09:02.559Z,52.90
2022-08-09T13:09:40.978Z,53.30
2022-08-09T13:10:15.314Z,53.00
2022-08-09T13:10:59.994Z,53.30
2022-08-09T13:11:35.128Z,52.60
2022-08-09T13:12:11.665Z,52.00
2022-08-09T13:13:10.838Z,52.10
2022-08-09T13:14:37.953Z,52.30
2022-08-09T13:14:43.665Z,53.20
2022-08-09T13:15:19.409Z,52.80
2022-08-09T13:15:55.743Z,52.30
2022-08-09T13:16:46.765Z,52.40
2022-08-09T13:17:44.104Z,52.40
2022-08-09T13:18:17.536Z,53.20
2022-08-09T13:18:53.802Z,55.40
2022-08-09T13:20:10.818Z,54.00
2022-08-09T13:20:37.826Z,53.80
2022-08-09T13:22:36.266Z,53.10
2022-08-09T13:22:37.982Z,53.10
2022-08-09T13:24:15.639Z,52.70
2022-08-09T13:24:42.363Z,53.00
2022-08-09T13:25:04.195Z,53.60
2022-08-09T13:25:42.656Z,53.60
2022-08-09T13:26:36.726Z,53.90
2022-08-09T13:27:40.110Z,53.50
2022-08-09T13:28:34.531Z,53.50
2022-08-09T13:29:17.227Z,54.20
2022-08-09T13:30:04.283Z,53.10
2022-08-09T13:32:17.628Z,53.10
2022-08-09T13:32:19.997Z,51.70
2022-08-09T13:32:56.371Z,51.10
2022-08-09T13:33:52.654Z,51.90
2022-08-09T13:34:20.022Z,52.90
2022-08-09T13:34:52.377Z,52.90
2022-08-09T13:35:34.650Z,53.70
2022-08-09T13:36:38.818Z,53.50
2022-08-09T13:37:11.878Z,53.20
2022-08-09T13:37:51.824Z,52.80
2022-08-09T13:38:55.996Z,53.70
2022-08-09T13:41:46.925Z,52.50
2022-08-09T13:41:51.144Z,53.00
2022-08-09T13:41:51.670Z,51.80
2022-08-09T13:42:01.345Z,52.20
2022-08-09T13:42:34.239Z,52.50
2022-08-09T13:43:09.462Z,53.30
2022-08-09T13:43:41.985Z,53.50
2022-08-09T13:44:16.600Z,52.90
2022-08-09T13:44:50.028Z,51.90
2022-08-09T13:45:21.857Z,51.20
2022-08-09T13:46:44.607Z,51.00
2022-08-09T13:47:26.616Z,51.10
2022-08-09T13:47:51.215Z,51.20
2022-08-09T13:48:26.497Z,50.90
2022-08-09T13:49:01.858Z,51.10
2022-08-09T13:49:56.515Z,52.90
2022-08-09T13:50:30.974Z,52.70
2022-08-09T13:51:03.638Z,52.60
2022-08-09T13:51:35.519Z,52.20
2022-08-09T13:52:09.257Z,52.50
2022-08-09T13:52:42.957Z,53.20
2022-08-09T13:53:16.573Z,52.50
2022-08-09T13:53:48.376Z,52.30
2022-08-09T13:54:21.007Z,52.70
2022-08-09T13:54:59.834Z,52.00
2022-08-09T13:55:33.858Z,51.10
2022-08-09T13:56:12.179Z,50.80
2022-08-09T13:56:47.101Z,50.70
2022-08-09T13:57:36.908Z,51.30
2022-08-09T13:58:11.663Z,52.30
2022-08-09T13:58:43.787Z,52.10
2022-08-09T13:59:15.564Z,52.20
2022-08-09T13:59:51.113Z,51.50
2022-08-09T14:00:28.648Z,51.00
2022-08-09T14:01:00.955Z,51.80
2022-08-09T14:02:00.458Z,52.10
2022-08-09T14:02:26.073Z,51.80
2022-08-09T14:03:17.046Z,50.20
2022-08-09T14:04:03.517Z,49.80
2022-08-09T14:04:37.512Z,49.00
2022-08-09T14:05:10.639Z,49.20
2022-08-09T14:05:59.912Z,49.40
2022-08-09T14:06:36.935Z,49.40
2022-08-09T14:07:11.843Z,50.20
2022-08-09T14:07:44.199Z,50.60
2022-08-09T14:08:17.463Z,50.70
2022-08-09T14:08:49.622Z,50.80
2022-08-09T14:09:21.404Z,50.40
2022-08-09T14:09:53.366Z,51.20
2022-08-09T14:10:46.336Z,52.40
2022-08-09T14:11:19.140Z,51.90
2022-08-09T14:11:53.735Z,52.00
2022-08-09T14:12:25.633Z,52.20
2022-08-09T14:12:59.686Z,52.30
2022-08-09T14:14:23.002Z,51.70
2022-08-09T14:14:27.570Z,51.50
2022-08-09T14:15:01.770Z,51.30
2022-08-09T14:16:09.351Z,51.60
2022-08-09T14:16:28.713Z,51.60
2022-08-09T14:17:00.955Z,51.30
2022-08-09T14:18:06.444Z,51.10
2022-08-09T14:18:29.900Z,50.60
2022-08-09T14:19:04.143Z,50.40
2022-08-09T14:19:36.898Z,51.00
2022-08-09T14:20:09.507Z,50.30
2022-08-09T14:20:44.414Z,49.90
2022-08-09T14:21:24.059Z,50.20
2022-08-09T14:21:55.903Z,50.40
2022-08-09T14:22:28.603Z,50.50
2022-08-09T14:23:00.471Z,50.50
2022-08-09T14:23:40.687Z,51.30
2022-08-09T14:24:32.629Z,51.00
2022-08-09T14:25:06.042Z,50.80
2022-08-09T14:25:43.262Z,51.00
2022-08-09T14:26:15.108Z,50.70
2022-08-09T14:26:51.756Z,50.60
2022-08-09T14:27:25.322Z,50.60
2022-08-09T14:27:59.045Z,51.50
2022-08-09T14:28:30.924Z,50.60
2022-08-09T14:30:15.157Z,51.40
2022-08-09T14:30:35.477Z,51.40
2022-08-09T14:30:52.547Z,51.60
2022-08-09T14:31:35.747Z,50.60
2022-08-09T14:32:19.700Z,50.70
2022-08-09T14:33:01.174Z,51.30
2022-08-09T14:33:40.184Z,51.30
2022-08-09T14:34:13.262Z,51.00
2022-08-09T14:34:55.757Z,51.60
2022-08-09T14:35:38.745Z,51.20
2022-08-09T14:36:21.181Z,50.70
2022-08-09T14:36:52.991Z,50.30
2022-08-09T14:37:28.088Z,51.00
2022-08-09T14:38:02.613Z,50.90
2022-08-09T14:38:36.190Z,50.80
2022-08-09T14:39:10.681Z,51.60
2022-08-09T14:39:47.001Z,51.10
2022-08-09T14:40:38.893Z,50.70
2022-08-09T14:41:34.367Z,50.60
2022-08-09T14:42:04.016Z,50.00
2022-08-09T14:42:36.703Z,49.30
2022-08-09T14:43:08.734Z,49.40
2022-08-09T14:43:47.618Z,49.90
2022-08-09T14:44:32.503Z,49.80
2022-08-09T14:46:55.973Z,49.80
2022-08-09T14:46:58.607Z,50.20
2022-08-09T14:47:03.102Z,49.70
2022-08-09T14:47:45.507Z,49.10
2022-08-09T14:48:21.391Z,48.70
2022-08-09T14:48:58.611Z,48.50
2022-08-09T14:49:34.637Z,48.80
2022-08-09T14:50:20.930Z,48.70
2022-08-09T14:50:52.827Z,50.30
2022-08-09T14:51:26.818Z,52.10
2022-08-09T14:52:02.021Z,50.70
2022-08-09T14:52:35.921Z,50.70
2022-08-09T14:53:11.503Z,50.50
2022-08-09T14:53:48.697Z,50.40
2022-08-09T14:54:28.053Z,51.00
2022-08-09T14:55:00.194Z,50.80
2022-08-09T14:55:33.032Z,51.10
2022-08-09T14:56:06.609Z,51.20
2022-08-09T14:56:58.162Z,50.90
2022-08-09T14:57:31.759Z,50.20
2022-08-09T14:58:14.682Z,51.00
2022-08-09T14:58:46.491Z,50.90
2022-08-09T14:59:18.327Z,50.70
2022-08-09T14:59:53.114Z,50.00
2022-08-09T15:00:25.062Z,49.70
2022-08-09T15:00:59.078Z,48.60
2022-08-09T15:01:30.995Z,47.70
2022-08-09T15:02:04.682Z,47.30
2022-08-09T15:02:37.631Z,48.40
2022-08-09T15:03:10.530Z,49.60
2022-08-09T15:03:43.157Z,49.90
2022-08-09T15:04:15.444Z,49.90
2022-08-09T15:04:47.806Z,49.90
2022-08-09T15:05:20.060Z,49.40
2022-08-09T15:05:56.735Z,48.70
2022-08-09T15:06:30.142Z,48.90
2022-08-09T15:07:01.988Z,49.20
2022-08-09T15:07:35.384Z,49.50
2022-08-09T15:08:10.150Z,50.20
2022-08-09T15:08:42.445Z,50.00
2022-08-09T15:09:14.218Z,50.00
2022-08-09T15:10:04.661Z,50.00
2022-08-09T15:10:38.525Z,49.80
2022-08-09T15:11:10.326Z,49.60
2022-08-09T15:11:48.664Z,49.40
2022-08-09T15:12:21.601Z,49.00
2022-08-09T15:12:55.609Z,49.20
2022-08-09T15:13:27.395Z,49.20
2022-08-09T15:14:19.421Z,49.20
2022-08-09T15:14:51.231Z,49.70
2022-08-09T15:15:28.255Z,49.80
2022-08-09T15:16:00.580Z,49.50
2022-08-09T15:16:32.388Z,49.40
2022-08-09T15:17:07.519Z,49.80
2022-08-09T15:17:41.579Z,50.20
2022-08-09T15:18:18.082Z,50.20
2022-08-09T15:18:49.929Z,49.80
2022-08-09T15:19:26.210Z,49.90
2022-08-09T15:19:59.814Z,49.80
2022-08-09T15:21:57.107Z,50.10
2022-08-09T15:21:57.607Z,50.10
2022-08-09T15:22:19.566Z,49.80
2022-08-09T15:22:59.758Z,49.60
2022-08-09T15:24:00.602Z,49.30
2022-08-09T15:24:27.336Z,48.90
2022-08-09T15:24:59.406Z,48.50
2022-08-09T15:25:41.240Z,48.30
2022-08-09T15:26:18.745Z,48.10
2022-08-09T15:26:53.250Z,48.40
2022-08-09T15:27:25.396Z,48.20
2022-08-09T15:28:00.898Z,48.20
2022-08-09T15:28:33.554Z,48.00
2022-08-09T15:29:05.719Z,47.90
2022-08-09T15:30:58.279Z,47.60
2022-08-09T15:34:33.553Z,50.90
2022-08-09T15:35:18.348Z,49.00
2022-08-09T15:36:02.214Z,49.20
2022-08-09T15:36:34.394Z,49.50
2022-08-09T15:37:38.208Z,49.30
2022-08-09T15:38:16.689Z,49.60
2022-08-09T15:38:49.043Z,49.10
2022-08-09T15:39:20.953Z,48.90
2022-08-09T15:39:54.703Z,48.90
2022-08-09T15:40:32.291Z,49.20
2022-08-09T15:41:09.771Z,48.90
2022-08-09T15:41:41.948Z,48.80
2022-08-09T15:42:14.904Z,48.60
2022-08-09T15:42:48.143Z,48.50
2022-08-09T15:43:20.161Z,48.60
2022-08-09T15:43:56.677Z,48.50
2022-08-09T15:44:32.584Z,48.90
2022-08-09T15:45:07.123Z,48.60
2022-08-09T15:46:08.103Z,48.90
2022-08-09T15:46:35.190Z,49.20
2022-08-09T15:47:07.153Z,49.40
2022-08-09T15:48:03.371Z,49.50
2022-08-09T15:48:38.583Z,49.20
2022-08-09T15:49:21.001Z,49.50
2022-08-09T15:50:03.464Z,49.60
2022-08-09T15:50:39.175Z,49.90
2022-08-09T15:51:30.463Z,49.80
2022-08-09T15:52:07.907Z,49.50
2022-08-09T15:52:41.950Z,49.30
2022-08-09T15:54:02.752Z,49.80
2022-08-09T15:54:33.508Z,49.50
2022-08-09T15:55:15.315Z,49.30
2022-08-09T15:56:11.101Z,49.10
2022-08-09T15:56:39.018Z,49.30
2022-08-09T15:57:10.874Z,49.50
2022-08-09T15:57:44.295Z,49.50
2022-08-09T15:58:26.719Z,49.30
2022-08-09T15:58:59.392Z,49.20
2022-08-09T15:59:37.001Z,48.80
2022-08-09T16:00:15.181Z,48.80
2022-08-09T16:00:56.850Z,48.70
2022-08-09T16:01:31.505Z,48.60
2022-08-09T16:02:07.577Z,48.50
2022-08-09T16:02:39.761Z,48.30
2022-08-09T16:03:12.123Z,48.50